createdAt,value
2018-09-18T00:01:14.833Z,7.00
2018-09-18T00:03:42.978Z,6.30
2018-09-18T00:06:11.101Z,6.33
2018-09-18T00:08:39.242Z,6.73
2018-09-18T00:11:07.377Z,5.70
2018-09-18T00:13:35.714Z,5.97
2018-09-18T00:16:03.930Z,5.67
2018-09-18T00:18:32.475Z,8.20
2018-09-18T00:21:00.841Z,6.50
2018-09-18T00:23:28.989Z,7.53
2018-09-18T00:25:57.129Z,8.90
2018-09-18T00:28:25.577Z,6.03
2018-09-18T00:30:53.694Z,5.90
2018-09-18T00:33:21.831Z,6.57
2018-09-18T00:35:49.989Z,7.23
2018-09-18T00:38:17.915Z,7.17
2018-09-18T00:40:46.057Z,7.70
2018-09-18T00:43:14.229Z,6.30
2018-09-18T00:45:42.346Z,7.57
2018-09-18T00:48:10.466Z,6.47
2018-09-18T00:50:38.601Z,6.83
2018-09-18T00:53:06.742Z,7.27
2018-09-18T00:55:34.869Z,9.83
2018-09-18T00:58:02.988Z,6.47
2018-09-18T01:00:31.157Z,6.47
2018-09-18T01:02:59.293Z,7.53
2018-09-18T01:05:27.443Z,8.57
2018-09-18T01:07:55.559Z,6.53
2018-09-18T01:10:23.456Z,6.83
2018-09-18T01:12:51.578Z,7.33
2018-09-18T01:15:19.802Z,6.90
2018-09-18T01:17:47.934Z,7.53
2018-09-18T01:20:16.064Z,8.53
2018-09-18T01:22:44.280Z,6.73
2018-09-18T01:25:12.445Z,6.60
2018-09-18T01:27:40.578Z,6.23
2018-09-18T01:30:08.707Z,8.17
2018-09-18T01:32:36.821Z,7.20
2018-09-18T01:35:04.946Z,7.43
2018-09-18T01:37:33.133Z,10.07
2018-09-18T01:40:01.266Z,7.70
2018-09-18T01:42:29.436Z,7.00
2018-09-18T01:44:57.553Z,11.77
2018-09-18T01:47:25.670Z,7.43
2018-09-18T01:49:54.806Z,7.27
2018-09-18T01:52:22.928Z,9.30
2018-09-18T01:54:51.044Z,8.67
2018-09-18T01:57:19.180Z,9.17
2018-09-18T01:59:47.331Z,7.20
2018-09-18T02:02:15.217Z,8.00
2018-09-18T02:04:43.510Z,7.93
2018-09-18T02:07:11.617Z,8.23
2018-09-18T02:09:39.721Z,9.17
2018-09-18T02:12:07.850Z,10.60
2018-09-18T02:14:35.969Z,7.70
2018-09-18T02:17:04.078Z,9.23
2018-09-18T02:19:32.190Z,9.60
2018-09-18T02:22:00.309Z,11.17
2018-09-18T02:24:28.473Z,8.90
2018-09-18T02:26:56.587Z,10.57
2018-09-18T02:29:24.698Z,8.63
2018-09-18T02:31:52.862Z,8.73
2018-09-18T02:34:20.977Z,9.37
2018-09-18T02:36:49.095Z,8.67
2018-09-18T02:39:17.221Z,9.77
2018-09-18T02:41:45.359Z,10.50
2018-09-18T02:44:13.486Z,9.23
2018-09-18T02:46:41.379Z,8.53
2018-09-18T02:49:09.506Z,8.60
2018-09-18T02:51:37.637Z,10.07
2018-09-18T02:54:05.782Z,11.47
2018-09-18T02:56:33.954Z,10.10
2018-09-18T02:59:02.077Z,8.70
2018-09-18T03:01:30.210Z,9.37
2018-09-18T03:03:58.345Z,13.77
2018-09-18T03:06:26.480Z,11.30
2018-09-18T03:08:54.609Z,10.40
2018-09-18T03:11:22.826Z,11.17
2018-09-18T03:13:50.950Z,9.73
2018-09-18T03:16:19.070Z,9.37
2018-09-18T03:18:47.186Z,9.43
2018-09-18T03:21:15.124Z,9.73
2018-09-18T03:23:43.270Z,9.30
2018-09-18T03:26:11.406Z,9.87
2018-09-18T03:28:39.328Z,9.57
2018-09-18T03:31:07.466Z,9.20
2018-09-18T03:33:36.778Z,9.87
2018-09-18T03:36:04.901Z,10.73
2018-09-18T03:38:33.089Z,9.37
2018-09-18T03:41:01.207Z,15.03
2018-09-18T03:43:29.361Z,10.10
2018-09-18T03:45:57.526Z,9.77
2018-09-18T03:48:25.656Z,12.67
2018-09-18T03:50:53.874Z,11.73
2018-09-18T03:53:22.005Z,10.90
2018-09-18T03:55:50.125Z,9.93
2018-09-18T03:58:18.262Z,11.77
2018-09-18T04:00:46.402Z,11.57
2018-09-18T04:03:14.609Z,10.33
2018-09-18T04:05:42.745Z,11.37
2018-09-18T04:08:10.866Z,10.93
2018-09-18T04:10:38.995Z,10.30
2018-09-18T04:13:07.482Z,12.67
2018-09-18T04:15:35.629Z,10.77
2018-09-18T04:18:03.767Z,13.37
2018-09-18T04:20:31.905Z,11.17
2018-09-18T04:23:00.038Z,12.33
2018-09-18T04:25:28.010Z,10.10
2018-09-18T04:27:56.138Z,10.53
2018-09-18T04:30:24.266Z,11.73
2018-09-18T04:32:52.411Z,11.63
2018-09-18T04:35:20.517Z,11.03
2018-09-18T04:37:48.683Z,10.97
2018-09-18T04:40:16.834Z,10.33
2018-09-18T04:42:44.937Z,10.67
2018-09-18T04:45:13.098Z,11.20
2018-09-18T04:47:41.253Z,11.20
2018-09-18T04:50:09.411Z,13.30
2018-09-18T04:52:37.546Z,10.63
2018-09-18T04:55:05.751Z,13.03
2018-09-18T04:57:33.560Z,12.10
2018-09-18T05:00:01.678Z,10.67
2018-09-18T05:02:29.797Z,10.87
2018-09-18T05:04:57.909Z,11.37
2018-09-18T05:07:26.040Z,13.60
2018-09-18T05:09:54.166Z,11.77
2018-09-18T05:12:22.302Z,11.70
2018-09-18T05:14:50.417Z,16.70
2018-09-18T05:17:18.565Z,11.60
2018-09-18T05:19:46.687Z,11.63
2018-09-18T05:22:14.805Z,12.57
2018-09-18T05:24:42.965Z,12.03
2018-09-18T05:27:11.110Z,13.10
2018-09-18T05:29:39.249Z,14.07
2018-09-18T05:32:07.369Z,11.40
2018-09-18T05:34:35.511Z,13.50
2018-09-18T05:37:03.669Z,11.97
2018-09-18T05:39:31.825Z,11.90
2018-09-18T05:42:00.882Z,12.10
2018-09-18T05:44:29.011Z,16.33
2018-09-18T05:46:56.911Z,12.50
2018-09-18T05:49:27.202Z,13.03
2018-09-18T05:51:55.326Z,11.47
2018-09-18T05:54:23.549Z,14.00
2018-09-18T05:56:51.702Z,11.40
2018-09-18T05:59:20.513Z,13.70
2018-09-18T06:01:48.698Z,13.67
2018-09-18T06:04:16.826Z,12.90
2018-09-18T06:06:44.950Z,11.87
2018-09-18T06:09:13.410Z,12.20
2018-09-18T06:11:41.549Z,13.17
2018-09-18T06:14:10.017Z,11.67
2018-09-18T06:16:38.138Z,13.47
2018-09-18T06:19:06.327Z,14.67
2018-09-18T06:21:34.402Z,12.10
2018-09-18T06:24:02.582Z,11.40
2018-09-18T06:26:30.739Z,19.50
2018-09-18T06:28:59.129Z,14.37
2018-09-18T06:31:27.054Z,13.13
2018-09-18T06:33:55.825Z,12.80
2018-09-18T06:36:23.993Z,14.33
2018-09-18T06:38:52.255Z,11.70
2018-09-18T06:41:20.516Z,15.37
2018-09-18T06:43:48.637Z,12.83
2018-09-18T06:46:16.799Z,13.63
2018-09-18T06:48:44.985Z,15.20
2018-09-18T06:51:13.146Z,13.13
2018-09-18T06:53:41.311Z,16.73
2018-09-18T06:56:09.498Z,14.17
2018-09-18T06:58:37.653Z,14.07
2018-09-18T07:01:06.410Z,12.03
2018-09-18T07:03:34.545Z,13.67
2018-09-18T07:06:02.692Z,13.47
2018-09-18T07:08:31.441Z,12.83
2018-09-18T07:10:59.585Z,14.10
2018-09-18T07:13:27.758Z,17.20
2018-09-18T07:15:56.037Z,11.73
2018-09-18T07:18:24.021Z,14.10
2018-09-18T07:20:52.299Z,14.10
2018-09-18T07:23:20.440Z,12.17
2018-09-18T07:25:48.593Z,12.93
2018-09-18T07:28:16.734Z,12.00
2018-09-18T07:30:44.874Z,12.83
2018-09-18T07:33:13.127Z,13.37
2018-09-18T07:35:41.258Z,13.47
2018-09-18T07:38:09.418Z,13.00
2018-09-18T07:40:37.706Z,14.60
2018-09-18T07:43:05.848Z,13.60
2018-09-18T07:45:33.988Z,10.77
2018-09-18T07:48:02.145Z,10.77
2018-09-18T07:50:30.298Z,10.00
2018-09-18T07:52:58.430Z,10.07
2018-09-18T07:55:26.566Z,11.40
2018-09-18T07:57:54.696Z,11.57
2018-09-18T08:00:22.830Z,11.60
2018-09-18T08:02:50.970Z,9.93
2018-09-18T08:05:19.491Z,11.90
2018-09-18T08:07:47.693Z,13.47
2018-09-18T08:10:15.835Z,10.87
2018-09-18T08:12:43.966Z,12.33
2018-09-18T08:15:12.090Z,11.97
2018-09-18T08:17:40.227Z,13.23
2018-09-18T08:20:08.375Z,16.23
2018-09-18T08:22:36.710Z,14.37
2018-09-18T08:25:05.173Z,12.43
2018-09-18T08:27:33.301Z,15.27
2018-09-18T08:30:01.451Z,18.27
2018-09-18T08:32:29.672Z,18.93
2018-09-18T08:34:57.787Z,16.43
2018-09-18T08:37:25.923Z,18.87
2018-09-18T08:39:54.253Z,15.03
2018-09-18T08:42:22.334Z,10.80
2018-09-18T08:44:50.512Z,9.63
2018-09-18T08:47:18.637Z,8.77
2018-09-18T08:49:46.757Z,11.27
2018-09-18T08:52:14.885Z,14.60
2018-09-18T08:54:43.014Z,9.73
2018-09-18T08:57:11.155Z,11.27
2018-09-18T08:59:39.278Z,8.70
2018-09-18T09:02:07.482Z,10.40
2018-09-18T09:04:35.627Z,9.30
2018-09-18T09:07:03.758Z,8.90
2018-09-18T09:09:31.979Z,9.27
2018-09-18T09:12:00.092Z,11.70
2018-09-18T09:14:28.377Z,9.53
2018-09-18T09:16:56.339Z,8.33
2018-09-18T09:19:24.511Z,8.23
2018-09-18T09:21:52.806Z,8.63
2018-09-18T09:24:20.801Z,10.30
2018-09-18T09:26:49.013Z,8.73
2018-09-18T09:29:17.125Z,7.10
2018-09-18T09:31:45.222Z,9.93
2018-09-18T09:34:13.379Z,9.30
2018-09-18T09:36:41.519Z,8.10
2018-09-18T09:39:11.182Z,8.43
2018-09-18T09:41:39.348Z,7.30
2018-09-18T09:44:07.841Z,7.67
2018-09-18T09:46:36.006Z,10.33
2018-09-18T09:49:04.151Z,9.93
2018-09-18T09:51:32.300Z,10.27
2018-09-18T09:54:00.399Z,9.03
2018-09-18T09:56:28.793Z,8.47
2018-09-18T09:58:56.919Z,8.37
2018-09-18T10:01:30.416Z,8.03
2018-09-18T10:03:58.554Z,8.80
2018-09-18T10:06:27.133Z,8.20
2018-09-18T10:08:55.385Z,8.93
2018-09-18T10:11:23.508Z,9.70
2018-09-18T10:13:51.675Z,8.67
2018-09-18T10:16:19.801Z,7.97
2018-09-18T10:18:47.917Z,10.63
2018-09-18T10:21:16.106Z,7.73
2018-09-18T10:23:44.264Z,9.57
2018-09-18T10:26:12.587Z,8.33
2018-09-18T10:28:40.573Z,8.47
2018-09-18T10:31:08.716Z,8.93
2018-09-18T10:33:36.915Z,8.10
2018-09-18T10:36:05.066Z,7.93
2018-09-18T10:38:33.193Z,8.40
2018-09-18T10:41:01.445Z,9.47
2018-09-18T10:43:29.553Z,9.97
2018-09-18T10:45:57.775Z,7.33
2018-09-18T10:48:25.966Z,7.73
2018-09-18T10:50:54.100Z,9.73
2018-09-18T10:53:22.002Z,8.13
2018-09-18T10:55:50.172Z,12.17
2018-09-18T10:58:18.297Z,8.47
2018-09-18T11:00:46.464Z,8.47
2018-09-18T11:03:14.642Z,8.13
2018-09-18T11:05:42.757Z,7.70
2018-09-18T11:08:10.996Z,6.90
2018-09-18T11:10:39.059Z,10.93
2018-09-18T11:13:07.232Z,8.70
2018-09-18T11:15:35.431Z,7.67
2018-09-18T11:18:03.552Z,6.83
2018-09-18T11:20:31.651Z,7.00
2018-09-18T11:22:59.742Z,7.73
2018-09-18T11:25:27.638Z,7.23
2018-09-18T11:27:55.778Z,11.10
2018-09-18T11:30:23.930Z,6.90
2018-09-18T11:32:52.258Z,6.50
2018-09-18T11:35:20.282Z,8.80
2018-09-18T11:37:48.462Z,8.53
2018-09-18T11:40:16.618Z,6.43
2018-09-18T11:42:44.758Z,9.07
2018-09-18T11:45:12.878Z,7.67
2018-09-18T11:47:41.001Z,6.47
2018-09-18T11:50:09.317Z,6.77
2018-09-18T11:52:37.233Z,6.30
2018-09-18T11:55:05.485Z,6.70
2018-09-18T11:57:34.053Z,6.80
2018-09-18T12:00:02.262Z,8.27
2018-09-18T12:02:30.487Z,7.80
2018-09-18T12:04:58.646Z,6.30
2018-09-18T12:07:26.785Z,6.10
2018-09-18T12:09:54.926Z,7.77
2018-09-18T12:12:22.821Z,6.20
2018-09-18T12:14:50.942Z,8.30
2018-09-18T12:17:19.079Z,7.43
2018-09-18T12:19:47.193Z,6.27
2018-09-18T12:22:15.402Z,6.73
2018-09-18T12:24:43.466Z,5.93
2018-09-18T12:27:11.585Z,9.30
2018-09-18T12:29:39.914Z,7.77
2018-09-18T12:32:08.231Z,6.27
2018-09-18T12:34:36.429Z,5.40
2018-09-18T12:37:04.681Z,5.03
2018-09-18T12:39:32.805Z,7.63
2018-09-18T12:42:01.101Z,8.67
2018-09-18T12:44:29.085Z,5.87
2018-09-18T12:46:57.198Z,6.13
2018-09-18T12:49:25.409Z,7.67
2018-09-18T12:51:53.454Z,7.57
2018-09-18T12:54:21.593Z,5.63
2018-09-18T12:56:49.860Z,6.10
2018-09-18T12:59:17.965Z,7.30
2018-09-18T13:01:46.029Z,4.77
2018-09-18T13:04:14.288Z,4.43
2018-09-18T13:06:42.446Z,5.27
2018-09-18T13:09:12.531Z,4.97
2018-09-18T13:11:40.680Z,4.83
2018-09-18T13:14:09.211Z,5.40
2018-09-18T13:16:37.346Z,5.30
2018-09-18T13:19:05.841Z,7.20
2018-09-18T13:21:33.974Z,7.20
2018-09-18T13:24:02.087Z,7.33
2018-09-18T13:26:29.981Z,7.20
2018-09-18T13:28:58.125Z,6.80
2018-09-18T13:31:26.059Z,7.47
2018-09-18T13:33:54.171Z,9.27
2018-09-18T13:36:22.316Z,4.60
2018-09-18T13:38:50.516Z,4.90
2018-09-18T13:41:18.849Z,8.80
2018-09-18T13:43:46.928Z,6.63
2018-09-18T13:46:15.179Z,4.93
2018-09-18T13:48:43.290Z,6.07
2018-09-18T13:51:12.022Z,7.57
2018-09-18T13:53:39.956Z,5.60
2018-09-18T13:56:08.276Z,5.77
2018-09-18T13:58:36.357Z,7.67
2018-09-18T14:01:04.557Z,6.00
2018-09-18T14:03:32.714Z,6.93
2018-09-18T14:06:00.875Z,6.90
2018-09-18T14:08:29.064Z,6.00
2018-09-18T14:10:57.962Z,6.30
2018-09-18T14:13:26.115Z,6.60
2018-09-18T14:15:54.295Z,6.57
2018-09-18T14:18:22.453Z,7.60
2018-09-18T14:20:50.615Z,5.33
2018-09-18T14:23:18.777Z,6.57
2018-09-18T14:25:46.966Z,5.00
2018-09-18T14:28:15.186Z,5.93
2018-09-18T14:30:43.475Z,6.90
2018-09-18T14:33:11.678Z,6.03
2018-09-18T14:35:39.771Z,6.23
2018-09-18T14:38:07.931Z,6.77
2018-09-18T14:40:36.235Z,6.40
2018-09-18T14:43:04.279Z,6.93
2018-09-18T14:45:32.426Z,11.90
2018-09-18T14:48:00.593Z,6.27
2018-09-18T14:50:28.741Z,7.13
2018-09-18T14:52:56.922Z,7.63
2018-09-18T14:55:25.095Z,5.83
2018-09-18T14:57:53.253Z,6.43
2018-09-18T15:00:21.555Z,10.90
2018-09-18T15:02:49.810Z,8.77
2018-09-18T15:05:17.967Z,5.23
2018-09-18T15:07:46.125Z,7.53
2018-09-18T15:10:14.269Z,5.30
2018-09-18T15:12:42.634Z,6.30
2018-09-18T15:15:10.795Z,5.67
2018-09-18T15:17:38.968Z,4.27
2018-09-18T15:20:07.125Z,4.00
2018-09-18T15:22:35.293Z,3.70
2018-09-18T15:25:03.712Z,4.50
2018-09-18T15:27:32.070Z,5.17
2018-09-18T15:30:00.196Z,5.73
2018-09-18T15:32:28.483Z,4.13
2018-09-18T15:34:56.761Z,5.63
2018-09-18T15:37:24.998Z,5.87
2018-09-18T15:39:53.211Z,10.17
2018-09-18T15:42:21.330Z,5.73
2018-09-18T15:44:49.503Z,7.33
2018-09-18T15:47:17.763Z,6.30
2018-09-18T15:49:45.974Z,5.67
2018-09-18T15:52:14.142Z,7.17
2018-09-18T15:54:42.322Z,5.00
2018-09-18T15:57:10.489Z,7.13
2018-09-18T15:59:38.683Z,6.07
2018-09-18T16:02:07.084Z,4.87
2018-09-18T16:04:35.016Z,4.27
2018-09-18T16:07:03.212Z,6.40
2018-09-18T16:09:31.403Z,4.80
2018-09-18T16:11:59.484Z,3.93
2018-09-18T16:14:27.733Z,5.10
2018-09-18T16:16:55.859Z,4.13
2018-09-18T16:19:24.045Z,5.43
2018-09-18T16:21:52.532Z,4.17
2018-09-18T16:29:21.394Z,7.90
2018-09-18T16:31:49.586Z,4.67
2018-09-18T16:34:17.751Z,5.70
2018-09-18T16:36:45.966Z,6.53
2018-09-18T16:39:14.105Z,10.17
2018-09-18T16:41:42.301Z,3.87
2018-09-18T16:44:10.471Z,4.10
2018-09-18T16:46:38.702Z,5.83
2018-09-18T16:49:06.889Z,5.40
2018-09-18T16:51:35.031Z,4.73
2018-09-18T16:54:03.190Z,10.37
2018-09-18T16:56:31.334Z,5.30
2018-09-18T16:58:59.488Z,5.73
2018-09-18T17:01:27.678Z,5.53
2018-09-18T17:03:55.823Z,5.77
2018-09-18T17:06:24.026Z,4.53
2018-09-18T17:08:52.192Z,4.40
2018-09-18T17:11:20.382Z,4.13
2018-09-18T17:13:48.610Z,4.13
2018-09-18T17:16:17.103Z,9.45
2018-09-18T17:18:45.260Z,6.00
2018-09-18T17:21:13.482Z,8.30
2018-09-18T17:23:42.685Z,6.60
2018-09-18T17:26:10.868Z,6.80
2018-09-18T17:28:39.141Z,2.23
2018-09-18T17:31:07.401Z,0.60
2018-09-18T17:33:35.651Z,1.13
2018-09-18T17:36:03.877Z,0.60
2018-09-18T17:38:32.054Z,3.67
2018-09-18T17:41:00.207Z,4.50
2018-09-18T17:43:28.463Z,3.77
2018-09-18T17:45:56.617Z,4.20
2018-09-18T17:48:24.762Z,5.10
2018-09-18T17:50:52.888Z,7.30
2018-09-18T17:53:21.113Z,5.00
2018-09-18T17:55:49.258Z,4.73
2018-09-18T17:58:17.390Z,4.23
2018-09-18T18:00:45.516Z,4.50
2018-09-18T18:03:13.702Z,6.80
2018-09-18T18:05:42.011Z,8.00
2018-09-18T18:08:09.988Z,4.10
2018-09-18T18:10:38.110Z,6.20
2018-09-18T18:13:06.329Z,6.07
2018-09-18T18:15:34.589Z,5.20
2018-09-18T18:18:02.738Z,5.20
2018-09-18T18:20:30.930Z,5.43
2018-09-18T18:22:59.011Z,9.50
2018-09-18T18:25:27.181Z,7.30
2018-09-18T18:27:55.377Z,12.30
2018-09-18T18:30:23.584Z,5.47
2018-09-18T18:32:51.741Z,5.00
2018-09-18T18:35:19.874Z,7.57
2018-09-18T18:37:48.025Z,5.97
2018-09-18T18:40:15.939Z,4.07
2018-09-18T18:42:44.184Z,5.37
2018-09-18T18:45:12.438Z,4.73
2018-09-18T18:47:40.676Z,5.87
2018-09-18T18:50:08.742Z,6.97
2018-09-18T18:52:36.898Z,4.47
2018-09-18T18:55:05.045Z,7.13
2018-09-18T18:57:33.173Z,9.30
2018-09-18T19:00:01.134Z,7.20
2018-09-18T19:02:29.289Z,6.23
2018-09-18T19:04:57.473Z,7.03
2018-09-18T19:07:25.651Z,6.93
2018-09-18T19:09:53.791Z,8.50
2018-09-18T19:12:21.960Z,6.50
2018-09-18T19:14:50.075Z,4.13
2018-09-18T19:17:18.260Z,10.17
2018-09-18T19:19:46.469Z,7.47
2018-09-18T19:22:14.612Z,4.47
2018-09-18T19:24:42.750Z,5.63
2018-09-18T19:27:10.928Z,6.77
2018-09-18T19:29:39.061Z,5.67
2018-09-18T19:32:07.257Z,10.50
2018-09-18T19:34:35.389Z,7.73
2018-09-18T19:37:03.513Z,8.77
2018-09-18T19:39:31.665Z,6.50
2018-09-18T19:41:59.579Z,5.93
2018-09-18T19:44:27.733Z,8.27
2018-09-18T19:46:55.902Z,4.07
2018-09-18T19:49:24.077Z,4.23
2018-09-18T19:51:52.213Z,6.57
2018-09-18T19:54:20.342Z,6.37
2018-09-18T19:56:48.491Z,5.97
2018-09-18T19:59:16.685Z,6.30
2018-09-18T20:01:44.792Z,5.63
2018-09-18T20:04:13.006Z,4.87
2018-09-18T20:06:41.177Z,4.53
2018-09-18T20:09:10.275Z,7.77
2018-09-18T20:11:38.602Z,7.33
2018-09-18T20:14:06.760Z,7.40
2018-09-18T20:16:34.916Z,8.10
2018-09-18T20:19:03.057Z,7.37
2018-09-18T20:21:31.186Z,5.47
2018-09-18T20:23:59.413Z,6.73
2018-09-18T20:26:27.636Z,7.07
2018-09-18T20:28:55.911Z,7.23
2018-09-18T20:31:23.957Z,6.97
2018-09-18T20:33:52.162Z,5.67
2018-09-18T20:36:20.479Z,6.57
2018-09-18T20:38:48.503Z,6.27
2018-09-18T20:41:16.669Z,6.33
2018-09-18T20:43:44.823Z,5.33
2018-09-18T20:46:12.953Z,5.23
2018-09-18T20:48:41.094Z,8.53
2018-09-18T20:51:09.246Z,7.43
2018-09-18T20:53:37.397Z,5.30
2018-09-18T20:56:05.538Z,4.10
2018-09-18T21:01:13.748Z,5.27
2018-09-18T21:03:41.908Z,8.00
2018-09-18T21:06:10.047Z,7.13
2018-09-18T21:08:38.277Z,5.70
2018-09-18T21:11:06.419Z,4.70
2018-09-18T21:13:34.663Z,8.43
2018-09-18T21:16:02.810Z,7.47
2018-09-18T21:18:31.126Z,7.80
2018-09-18T21:20:59.268Z,6.60
2018-09-18T21:23:27.331Z,5.27
2018-09-18T21:26:02.882Z,6.63
2018-09-18T21:28:31.016Z,9.10
2018-09-18T21:30:59.168Z,4.60
2018-09-18T21:33:27.413Z,6.00
2018-09-18T21:35:55.510Z,7.23
2018-09-18T21:38:23.646Z,9.53
2018-09-18T21:40:51.784Z,5.63
2018-09-18T21:43:19.932Z,8.10
2018-09-18T21:45:48.736Z,7.43
2018-09-18T21:48:16.939Z,6.57
2018-09-18T21:50:45.081Z,5.33
2018-09-18T21:53:14.214Z,7.60
2018-09-18T21:55:43.125Z,5.97
2018-09-18T21:58:11.282Z,5.20
2018-09-18T22:00:39.542Z,5.40
2018-09-18T22:03:07.654Z,5.60
2018-09-18T22:05:35.833Z,7.43
2018-09-18T22:08:03.968Z,6.60
2018-09-18T22:10:32.089Z,5.60
2018-09-18T22:13:01.057Z,10.00
2018-09-18T22:15:29.850Z,6.13
2018-09-18T22:17:58.050Z,6.57
2018-09-18T22:20:26.249Z,6.77
2018-09-18T22:22:54.381Z,5.97
2018-09-18T22:25:23.169Z,6.20
2018-09-18T22:27:51.719Z,10.93
2018-09-18T22:30:19.897Z,5.93
2018-09-18T22:32:48.060Z,6.63
2018-09-18T22:35:16.486Z,11.80
2018-09-18T22:37:44.658Z,7.20
2018-09-18T22:40:12.813Z,6.63
2018-09-18T22:42:40.968Z,8.47
2018-09-18T22:45:09.118Z,6.70
2018-09-18T22:47:37.459Z,6.93
2018-09-18T22:50:05.745Z,5.53
2018-09-18T22:52:33.875Z,9.03
2018-09-18T22:55:02.025Z,7.33
2018-09-18T22:57:30.236Z,6.93
2018-09-18T22:59:58.401Z,8.97
2018-09-18T23:02:26.668Z,6.77
2018-09-18T23:04:54.789Z,6.97
2018-09-18T23:07:22.958Z,8.03
2018-09-18T23:09:51.096Z,8.67
2018-09-18T23:12:19.260Z,7.33
2018-09-18T23:14:47.381Z,7.97
2018-09-18T23:17:15.524Z,7.30
2018-09-18T23:19:43.649Z,9.30
2018-09-18T23:22:11.831Z,7.53
2018-09-18T23:24:39.978Z,7.57
2018-09-18T23:27:08.137Z,7.57
2018-09-18T23:29:36.267Z,8.53
2018-09-18T23:32:04.428Z,8.43
2018-09-18T23:34:32.571Z,7.47
2018-09-18T23:37:00.702Z,7.70
2018-09-18T23:39:28.849Z,7.43
2018-09-18T23:41:56.990Z,11.30
2018-09-18T23:44:25.138Z,8.47
2018-09-18T23:46:53.252Z,7.63
2018-09-18T23:49:21.440Z,9.27
2018-09-18T23:51:49.557Z,11.60
2018-09-18T23:54:17.749Z,8.13
2018-09-18T23:56:45.881Z,10.67
2018-09-18T23:59:14.050Z,8.70
